Tompkinsville, Kentucky
Current Conditions -  °F | °C
As of 6:15 PM on Saturday 25 Oct 2014 (Local Time) from KGLW Reporting Station
Clear Clear  
Wind Chill: 66°   Ceiling: Unl
Heat Index: 66°   Visibility: 10mi
Dew Point: 59°   Wind: 0mph
Humidity: 77%   Direction: NA
Pressure: 29.99"   Gusts: NA
Location:  36.7°N, 85.69°W
Report Text: KGLW 252315Z AUTO 00000KT 10SM CLR 19/15 A2999 RMK AO2 T01900149
Loading
Personal Weather Stations






























Interactive Weather Map
Tropical Storm Tracking
New forecast layout! Learn more

10-Day Weather Forecast

Advertisements
Track Severe Weather on mobile